createdAt,value
2022-08-07T00:03:38.092Z,24.3
2022-08-07T00:09:33.193Z,24.3
2022-08-07T00:15:18.978Z,24.2
2022-08-07T00:21:55.635Z,24.16
2022-08-07T00:27:20.853Z,24.11
2022-08-07T00:33:19.744Z,24.07
2022-08-07T00:39:04.240Z,23.99
2022-08-07T00:44:57.740Z,23.94
2022-08-07T00:50:50.952Z,23.9
2022-08-07T00:56:36.353Z,23.87
2022-08-07T01:02:28.993Z,23.84
2022-08-07T01:08:11.767Z,23.81
2022-08-07T01:13:55.604Z,23.76
2022-08-07T01:19:41.905Z,23.71
2022-08-07T01:25:40.737Z,23.68
2022-08-07T01:31:41.886Z,23.67
2022-08-07T01:37:31.917Z,23.64
2022-08-07T01:43:20.616Z,23.56
2022-08-07T01:49:18.518Z,23.5
2022-08-07T01:55:22.121Z,23.43
2022-08-07T02:01:25.804Z,23.42
2022-08-07T02:07:14.886Z,23.38
2022-08-07T02:12:59.975Z,23.34
2022-08-07T02:18:49.414Z,23.26
2022-08-07T02:24:35.353Z,23.21
2022-08-07T02:30:26.165Z,23.17
2022-08-07T02:36:27.709Z,23.11
2022-08-07T02:42:14.614Z,23.11
2022-08-07T02:48:01.745Z,23.04
2022-08-07T02:53:57.723Z,23.03
2022-08-07T02:59:44.183Z,22.99
2022-08-07T03:05:49.302Z,22.92
2022-08-07T03:11:38.489Z,22.82
2022-08-07T03:17:52.759Z,22.79
2022-08-07T03:24:18.607Z,22.77
2022-08-07T03:29:49.442Z,22.75
2022-08-07T03:35:38.077Z,22.71
2022-08-07T03:41:41.854Z,22.67
2022-08-07T03:47:45.225Z,22.67
2022-08-07T03:53:50.282Z,22.6
2022-08-07T03:59:37.094Z,22.55
2022-08-07T04:05:42.118Z,22.52
2022-08-07T04:12:20.664Z,22.45
2022-08-07T04:17:45.710Z,22.46
2022-08-07T04:23:43.067Z,22.4
2022-08-07T04:29:48.680Z,22.31
2022-08-07T04:35:50.337Z,22.32
2022-08-07T04:41:39.621Z,22.28
2022-08-07T04:47:57.445Z,22.26
2022-08-07T04:54:02.123Z,22.27
2022-08-07T05:00:09.129Z,22.33
2022-08-07T05:05:59.589Z,22.32
2022-08-07T05:12:02.667Z,22.36
2022-08-07T05:17:54.760Z,22.38
2022-08-07T05:23:45.510Z,22.4
2022-08-07T05:29:38.933Z,22.44
2022-08-07T05:35:42.022Z,22.51
2022-08-07T05:41:25.270Z,22.57
2022-08-07T05:47:37.998Z,22.63
2022-08-07T05:54:08.818Z,22.69
2022-08-07T05:59:38.887Z,22.59
2022-08-07T06:05:40.576Z,22.33
2022-08-07T06:11:37.878Z,22.14
2022-08-07T06:17:22.954Z,22
2022-08-07T06:23:25.338Z,21.97
2022-08-07T06:29:29.972Z,21.95
2022-08-07T06:35:17.663Z,21.9
2022-08-07T06:41:17.498Z,21.99
2022-08-07T06:47:21.291Z,22.04
2022-08-07T06:53:18.693Z,22.13
2022-08-07T07:00:11.531Z,22.3
2022-08-07T07:06:04.529Z,22.46
2022-08-07T07:12:06.977Z,22.66
2022-08-07T07:17:38.630Z,22.81
2022-08-07T07:24:07.050Z,22.89
2022-08-07T07:29:57.460Z,23.02
2022-08-07T07:35:54.586Z,23.23
2022-08-07T07:42:08.985Z,23.47
2022-08-07T07:47:55.177Z,23.67
2022-08-07T07:53:50.392Z,23.77
2022-08-07T07:59:51.971Z,23.94
2022-08-07T08:05:43.075Z,24.11
2022-08-07T08:11:47.474Z,24.3
2022-08-07T08:17:56.972Z,24.46
2022-08-07T08:23:45.055Z,24.63
2022-08-07T08:29:33.170Z,24.74
2022-08-07T08:35:39.260Z,24.94
2022-08-07T08:41:56.628Z,25.1
2022-08-07T08:47:47.514Z,25.27
2022-08-07T08:53:41.903Z,25.39
2022-08-07T08:59:41.933Z,25.57
2022-08-07T09:05:37.026Z,25.72
2022-08-07T09:11:43.886Z,25.84
2022-08-07T09:17:58.800Z,26.03
2022-08-07T09:24:29.679Z,26.22
2022-08-07T09:30:03.023Z,26.37
2022-08-07T09:36:01.856Z,26.51
2022-08-07T09:41:58.741Z,26.84
2022-08-07T09:48:01.100Z,26.91
2022-08-07T09:54:02.486Z,26.93
2022-08-07T10:00:00.426Z,26.94
2022-08-07T10:05:59.354Z,27.01
2022-08-07T10:12:15.614Z,27.15
2022-08-07T10:18:17.119Z,27.2
2022-08-07T10:24:21.830Z,27.31
2022-08-07T10:30:12.287Z,27.38
2022-08-07T10:36:05.410Z,27.43
2022-08-07T10:42:09.643Z,27.56
2022-08-07T10:48:12.976Z,27.67
2022-08-07T10:54:04.609Z,27.74
2022-08-07T10:59:56.662Z,27.83
2022-08-07T11:05:50.718Z,27.96
2022-08-07T11:11:42.951Z,28.1
2022-08-07T11:17:43.030Z,28.21
2022-08-07T11:23:38.496Z,28.31
2022-08-07T11:29:40.718Z,28.36
2022-08-07T11:35:59.388Z,28.45
2022-08-07T11:42:00.561Z,28.55
2022-08-07T11:47:53.476Z,28.65
2022-08-07T11:54:00.473Z,28.71
2022-08-07T12:00:09.038Z,28.81
2022-08-07T12:06:36.611Z,28.93
2022-08-07T12:12:24.937Z,29.1
2022-08-07T12:18:12.261Z,29.18
2022-08-07T12:24:37.180Z,29.28
2022-08-07T12:30:23.445Z,29.34
2022-08-07T12:36:10.957Z,29.43
2022-08-07T12:41:57.976Z,29.56
2022-08-07T12:47:53.015Z,29.63
2022-08-07T12:54:02.560Z,29.69
2022-08-07T12:59:55.073Z,29.83
2022-08-07T13:06:02.434Z,29.95
2022-08-07T13:12:02.818Z,30.11
2022-08-07T13:18:00.924Z,30.21
2022-08-07T13:24:00.359Z,30.23
2022-08-07T13:29:49.021Z,30.26
2022-08-07T13:36:00.131Z,30.37
2022-08-07T13:41:47.362Z,30.53
2022-08-07T13:48:05.603Z,30.59
2022-08-07T13:54:00.038Z,30.69
2022-08-07T13:59:45.487Z,30.78
2022-08-07T14:05:38.122Z,30.84
2022-08-07T14:11:53.995Z,30.91
2022-08-07T14:18:13.304Z,31
2022-08-07T14:23:59.851Z,31.07
2022-08-07T14:30:06.081Z,31.13
2022-08-07T14:35:54.927Z,31.18
2022-08-07T14:42:15.246Z,31.23
2022-08-07T14:47:48.823Z,31.29
2022-08-07T14:53:49.944Z,31.35
2022-08-07T15:00:03.954Z,31.36
2022-08-07T15:05:54.483Z,31.33
2022-08-07T15:11:54.484Z,31.42
2022-08-07T15:17:54.699Z,31.48
2022-08-07T15:23:53.562Z,31.57
2022-08-07T15:30:04.078Z,31.67
2022-08-07T15:36:01.029Z,31.74
2022-08-07T15:42:43.194Z,31.9
2022-08-07T15:48:12.589Z,32.06
2022-08-07T15:54:07.395Z,32.31
2022-08-07T15:59:56.811Z,32.45
2022-08-07T16:05:49.863Z,32.62
2022-08-07T16:11:44.425Z,32.78
2022-08-07T16:18:01.025Z,34.2
2022-08-07T16:23:55.388Z,35.84
2022-08-07T16:30:17.694Z,36.32
2022-08-07T16:36:18.365Z,35.51
2022-08-07T16:42:23.719Z,34.95
2022-08-07T16:48:34.578Z,34.92
2022-08-07T16:54:40.051Z,34.95
2022-08-07T17:00:39.120Z,35.12
2022-08-07T17:06:35.969Z,35.17
2022-08-07T17:12:43.976Z,35.36
2022-08-07T17:18:37.016Z,35.6
2022-08-07T17:24:42.599Z,35.92
2022-08-07T17:30:38.226Z,36.3
2022-08-07T17:36:49.126Z,36.57
2022-08-07T17:42:58.039Z,36.65
2022-08-07T17:48:50.778Z,36.47
2022-08-07T17:54:54.269Z,36.25
2022-08-07T18:00:48.576Z,35.85
2022-08-07T18:06:38.768Z,34.73
2022-08-07T18:12:39.267Z,33.59
2022-08-07T18:18:39.601Z,32.76
2022-08-07T18:24:35.513Z,32.23
2022-08-07T18:30:30.685Z,31.98
2022-08-07T18:36:33.064Z,31.79
2022-08-07T18:42:21.211Z,31.63
2022-08-07T18:48:38.094Z,31.42
2022-08-07T18:54:31.384Z,31.23
2022-08-07T19:00:32.310Z,30.99
2022-08-07T19:06:20.531Z,30.84
2022-08-07T19:12:19.065Z,30.68
2022-08-07T19:18:12.753Z,30.48
2022-08-07T19:24:06.232Z,30.29
2022-08-07T19:30:54.937Z,30.12
2022-08-07T19:35:57.140Z,30.01
2022-08-07T19:42:06.064Z,29.88
2022-08-07T19:47:49.607Z,29.72
2022-08-07T19:54:30.428Z,29.54
2022-08-07T19:59:49.411Z,29.4
2022-08-07T20:05:59.627Z,29.22
2022-08-07T20:12:01.779Z,29.09
2022-08-07T20:17:45.678Z,28.94
2022-08-07T20:23:52.031Z,28.76
2022-08-07T20:29:52.049Z,28.6
2022-08-07T20:35:52.051Z,28.46
2022-08-07T20:41:47.647Z,28.4
2022-08-07T20:47:55.142Z,28.16
2022-08-07T20:54:02.715Z,28
2022-08-07T21:00:05.792Z,27.86
2022-08-07T21:05:52.412Z,27.8
2022-08-07T21:11:46.288Z,27.73
2022-08-07T21:18:01.697Z,27.56
2022-08-07T21:23:49.606Z,27.46
2022-08-07T21:29:39.035Z,27.35
2022-08-07T21:36:04.599Z,27.23
2022-08-07T21:41:51.936Z,27.14
2022-08-07T21:47:50.161Z,27.04
2022-08-07T21:53:46.309Z,26.93
2022-08-07T22:00:02.662Z,26.83
2022-08-07T22:05:49.708Z,26.74
2022-08-07T22:11:53.137Z,26.63
2022-08-07T22:17:42.765Z,26.55
2022-08-07T22:23:43.206Z,26.5
2022-08-07T22:29:33.916Z,26.4
2022-08-07T22:35:39.630Z,26.33
2022-08-07T22:41:29.092Z,26.32
2022-08-07T22:47:54.838Z,26.21
2022-08-07T22:54:05.763Z,26.09
2022-08-07T22:59:57.223Z,26.02
2022-08-07T23:06:05.233Z,25.92
2022-08-07T23:12:04.030Z,25.88
2022-08-07T23:17:59.095Z,25.79
2022-08-07T23:24:04.604Z,25.74
2022-08-07T23:30:36.632Z,25.67
2022-08-07T23:36:22.803Z,25.62
2022-08-07T23:42:31.677Z,25.56
2022-08-07T23:48:25.053Z,25.48
2022-08-07T23:54:19.754Z,25.39
